Time;durP1;ratioP1;P1;durP2;ratioP2;P2;SDS_P1;SDS_P2;PMS_P1;PMS_P2;Temp;Humidity;BMP_temperature;BMP_pressure;BME280_temperature;BME280_humidity;BME280_pressure;Samples;Min_cycle;Max_cycle;Signal;HPM_P1;HPM_P2
2023/07/02 00:01:47;;;;;;;14.23;5.90;;;16.70;99.90;;;;;;4915068;29;20039;-86
2023/07/02 00:04:16;;;;;;;11.13;4.40;;;16.60;99.90;;;;;;4945550;29;20055;-86
2023/07/02 00:06:45;;;;;;;16.52;6.22;;;16.60;99.90;;;;;;4950752;29;20081;-86
2023/07/02 00:09:11;;;;;;;15.77;5.72;;;16.60;99.90;;;;;;4919230;29;20071;-86
2023/07/02 00:11:43;;;;;;;15.63;6.07;;;16.60;99.90;;;;;;4916653;29;20087;-86
2023/07/02 00:14:09;;;;;;;15.20;5.78;;;16.60;99.90;;;;;;4929511;29;20047;-86
2023/07/02 00:16:39;;;;;;;14.25;5.10;;;16.50;99.90;;;;;;4919216;29;20489;-86
2023/07/02 00:19:05;;;;;;;16.88;6.13;;;16.50;99.90;;;;;;4917400;29;20044;-86
2023/07/02 00:21:33;;;;;;;11.27;4.43;;;16.50;99.90;;;;;;4924859;29;20480;-87
2023/07/02 00:23:59;;;;;;;16.13;5.38;;;16.50;99.90;;;;;;4916557;29;20051;-86
2023/07/02 00:26:26;;;;;;;13.57;5.35;;;16.50;99.90;;;;;;4949594;29;20043;-86
2023/07/02 00:28:54;;;;;;;12.27;5.00;;;16.40;99.90;;;;;;4934820;29;20113;-86
2023/07/02 00:31:20;;;;;;;12.68;5.38;;;16.40;99.90;;;;;;4948636;29;20106;-86
2023/07/02 00:33:46;;;;;;;16.83;6.35;;;16.40;99.90;;;;;;4926041;29;20048;-86
2023/07/02 00:36:14;;;;;;;14.07;6.07;;;16.40;99.90;;;;;;4947283;29;20044;-86
2023/07/02 00:38:46;;;;;;;20.45;6.45;;;16.40;99.90;;;;;;4927601;29;20046;-86
2023/07/02 00:41:12;;;;;;;19.25;6.55;;;16.30;99.90;;;;;;4924507;29;20676;-86
2023/07/02 00:43:43;;;;;;;20.20;6.95;;;16.30;99.90;;;;;;4947268;29;20405;-86
2023/07/02 00:46:17;;;;;;;16.38;5.85;;;16.30;99.90;;;;;;4917599;29;20058;-86
2023/07/02 00:48:47;;;;;;;;;;;16.20;99.90;;;;;;4930802;29;20074;-87
2023/07/02 00:51:23;;;;;;;20.75;6.55;;;16.20;99.90;;;;;;4943209;29;19927;-86
2023/07/02 00:53:52;;;;;;;17.60;6.40;;;16.20;99.90;;;;;;4933538;29;20038;-86
2023/07/02 00:56:18;;;;;;;15.65;5.75;;;16.20;99.90;;;;;;4944483;29;20111;-86
2023/07/02 00:58:50;;;;;;;19.73;7.18;;;16.10;99.90;;;;;;4931856;29;20544;-86
2023/07/02 01:01:17;;;;;;;18.30;6.22;;;16.10;99.90;;;;;;4930428;29;20122;-86
2023/07/02 01:04:07;;;;;;;19.50;6.30;;;16.10;99.90;;;;;;4931584;29;20047;-86
2023/07/02 01:06:35;;;;;;;16.50;6.95;;;16.10;99.90;;;;;;4914636;29;20043;-86
2023/07/02 01:09:05;;;;;;;12.95;5.82;;;16.00;99.90;;;;;;4930361;29;20035;-86
2023/07/02 01:11:36;;;;;;;18.17;6.40;;;16.00;99.90;;;;;;4946366;29;20074;-86
2023/07/02 01:14:14;;;;;;;18.92;6.97;;;16.00;99.90;;;;;;4941444;29;20040;-86
2023/07/02 01:16:43;;;;;;;16.30;7.10;;;16.00;99.90;;;;;;4931173;29;20055;-86
2023/07/02 01:19:20;;;;;;;17.52;6.45;;;15.90;99.90;;;;;;4947039;29;20035;-87
2023/07/02 01:21:48;;;;;;;19.67;7.35;;;15.90;99.90;;;;;;4916818;29;20092;-86
2023/07/02 01:24:14;;;;;;;20.83;6.30;;;15.90;99.90;;;;;;4927891;29;20509;-86
2023/07/02 01:26:40;;;;;;;13.27;6.20;;;15.90;99.90;;;;;;4946963;29;20050;-86
2023/07/02 01:29:19;;;;;;;14.05;5.93;;;15.80;99.90;;;;;;4929762;28;20043;-87
2023/07/02 01:31:45;;;;;;;18.27;7.03;;;15.80;99.90;;;;;;4931374;29;20562;-86
2023/07/02 01:34:12;;;;;;;15.55;6.20;;;15.80;99.90;;;;;;4931726;29;20118;-87
2023/07/02 01:36:38;;;;;;;23.77;8.13;;;15.80;99.90;;;;;;4933438;29;20035;-86
2023/07/02 01:39:05;;;;;;;16.00;6.78;;;15.70;99.90;;;;;;4947352;29;20043;-86
2023/07/02 01:41:37;;;;;;;21.48;7.22;;;15.70;99.90;;;;;;4932672;29;20055;-86
2023/07/02 01:44:03;;;;;;;17.77;7.63;;;15.70;99.90;;;;;;4946889;29;20053;-86
2023/07/02 01:46:29;;;;;;;18.17;7.20;;;15.70;99.90;;;;;;4944919;28;20055;-86
2023/07/02 01:48:55;;;;;;;17.42;7.57;;;15.60;99.90;;;;;;4924844;29;20043;-86
2023/07/02 01:51:21;;;;;;;20.08;7.82;;;15.60;99.90;;;;;;4928456;29;20047;-86
2023/07/02 01:53:47;;;;;;;16.90;7.45;;;15.60;99.90;;;;;;4931468;29;20050;-87
2023/07/02 01:56:12;;;;;;;17.13;6.63;;;15.50;99.90;;;;;;4932379;29;20050;-86
2023/07/02 01:58:38;;;;;;;22.63;7.43;;;15.50;99.90;;;;;;4943839;29;20389;-86
2023/07/02 02:01:06;;;;;;;21.08;7.18;;;15.40;99.90;;;;;;4947029;29;20047;-86
2023/07/02 02:03:32;;;;;;;18.85;7.13;;;15.40;99.90;;;;;;4931548;29;20062;-86
2023/07/02 02:05:58;;;;;;;21.90;8.30;;;15.40;99.90;;;;;;4925641;29;20043;-86
2023/07/02 02:08:24;;;;;;;25.17;9.00;;;15.40;99.90;;;;;;4927606;29;20054;-86
2023/07/02 02:10:49;;;;;;;22.80;7.60;;;15.40;99.90;;;;;;4945594;29;20047;-86
2023/07/02 02:13:15;;;;;;;18.95;7.10;;;15.30;99.90;;;;;;4948214;29;20043;-86
2023/07/02 02:15:41;;;;;;;19.15;7.40;;;15.30;99.90;;;;;;4923952;29;20122;-86
2023/07/02 02:18:07;;;;;;;17.90;7.10;;;15.30;99.90;;;;;;4923548;29;20084;-86
2023/07/02 02:20:36;;;;;;;16.83;7.20;;;15.30;99.90;;;;;;4930192;29;20042;-86
2023/07/02 02:23:02;;;;;;;14.75;6.95;;;15.30;99.90;;;;;;4927678;29;20063;-86
2023/07/02 02:25:27;;;;;;;21.02;7.28;;;15.20;99.90;;;;;;4942367;29;20047;-86
2023/07/02 02:27:53;;;;;;;19.10;8.18;;;15.20;99.90;;;;;;4943556;29;20047;-86
2023/07/02 02:30:19;;;;;;;23.23;8.13;;;15.40;99.90;;;;;;4926096;29;20036;-87
2023/07/02 02:32:45;;;;;;;18.83;7.45;;;15.10;99.90;;;;;;4920252;29;20039;-86
2023/07/02 02:35:11;;;;;;;19.60;7.68;;;15.10;99.90;;;;;;4930147;29;20043;-86
2023/07/02 02:37:39;;;;;;;20.48;8.10;;;15.10;99.90;;;;;;4923219;29;20506;-86
2023/07/02 02:40:11;;;;;;;26.13;9.32;;;15.10;99.90;;;;;;4950045;28;20051;-86
2023/07/02 02:42:49;;;;;;;15.73;6.47;;;15.10;99.90;;;;;;4918765;29;20032;-86
2023/07/02 02:45:14;;;;;;;18.95;8.02;;;15.00;99.90;;;;;;4927376;29;20445;-86
2023/07/02 02:47:40;;;;;;;19.75;7.95;;;15.00;99.90;;;;;;4915938;29;20497;-87
2023/07/02 02:50:07;;;;;;;19.55;7.65;;;15.00;99.90;;;;;;4949465;29;20035;-86
2023/07/02 02:52:33;;;;;;;21.02;8.57;;;15.00;99.90;;;;;;4931835;29;20043;-87
2023/07/02 02:54:59;;;;;;;25.05;8.88;;;14.90;99.90;;;;;;4932635;29;20051;-87
2023/07/02 02:57:25;;;;;;;22.95;7.93;;;14.80;99.90;;;;;;4927934;29;20100;-87
2023/07/02 02:59:51;;;;;;;21.58;8.40;;;14.80;99.90;;;;;;4951888;29;20472;-87
2023/07/02 03:02:17;;;;;;;19.77;8.43;;;14.80;99.90;;;;;;4928888;29;20047;-87
2023/07/02 03:04:45;;;;;;;22.52;7.85;;;14.80;99.90;;;;;;4934658;29;20083;-87
2023/07/02 03:07:11;;;;;;;22.88;7.28;;;14.80;99.90;;;;;;4927467;29;20056;-87
2023/07/02 03:09:37;;;;;;;21.33;8.15;;;14.70;99.90;;;;;;4933005;28;20196;-87
2023/07/02 03:12:06;;;;;;;24.63;9.07;;;14.70;99.90;;;;;;4934762;29;20095;-87
2023/07/02 03:14:32;;;;;;;20.35;7.80;;;14.70;99.90;;;;;;4912074;29;20090;-87
2023/07/02 03:16:58;;;;;;;26.42;9.25;;;14.70;99.90;;;;;;4946010;29;20075;-87
2023/07/02 03:19:24;;;;;;;24.58;9.43;;;14.70;99.90;;;;;;4947054;29;20540;-87
2023/07/02 03:21:50;;;;;;;22.67;8.30;;;14.70;99.90;;;;;;4934755;29;20047;-87
2023/07/02 03:24:17;;;;;;;24.10;8.75;;;14.70;99.90;;;;;;4932775;29;20471;-87
2023/07/02 03:26:43;;;;;;;20.40;8.63;;;14.70;99.90;;;;;;4927704;29;20417;-87
2023/07/02 03:29:11;;;;;;;20.33;7.45;;;14.60;99.90;;;;;;4952578;29;20081;-87
2023/07/02 03:31:37;;;;;;;21.88;8.25;;;14.50;99.90;;;;;;4937299;29;20511;-87
2023/07/02 03:34:09;;;;;;;27.58;9.55;;;14.50;99.90;;;;;;4930352;29;20047;-87
2023/07/02 03:36:36;;;;;;;22.50;8.23;;;14.50;99.90;;;;;;4934644;29;20058;-87
2023/07/02 03:39:03;;;;;;;16.90;7.07;;;14.50;99.90;;;;;;4943180;28;20082;-87
2023/07/02 03:41:29;;;;;;;18.48;7.57;;;14.40;99.90;;;;;;4916752;29;20055;-87
2023/07/02 03:43:55;;;;;;;21.65;7.57;;;14.50;99.90;;;;;;4918836;29;20090;-87
2023/07/02 03:46:20;;;;;;;26.15;9.52;;;14.50;99.90;;;;;;4930076;29;20067;-87
2023/07/02 03:48:46;;;;;;;22.27;8.60;;;14.50;99.90;;;;;;4941860;29;20086;-87
2023/07/02 03:51:14;;;;;;;23.58;8.13;;;14.40;99.90;;;;;;4934141;29;20831;-87
2023/07/02 03:53:40;;;;;;;25.50;8.25;;;14.40;99.90;;;;;;4949645;29;20101;-87
2023/07/02 03:56:06;;;;;;;20.27;8.32;;;14.40;99.90;;;;;;4950808;29;20043;-87
2023/07/02 03:58:32;;;;;;;20.88;7.72;;;14.40;99.90;;;;;;4942349;29;20050;-86
2023/07/02 04:00:57;;;;;;;16.95;7.00;;;14.50;99.90;;;;;;4926521;29;20070;-87
2023/07/02 04:03:24;;;;;;;21.30;7.65;;;14.50;99.90;;;;;;4930893;29;20059;-87
2023/07/02 04:05:50;;;;;;;23.35;8.25;;;14.50;99.90;;;;;;4919709;29;20102;-87
2023/07/02 04:08:16;;;;;;;18.63;7.82;;;14.50;99.90;;;;;;4929367;29;20035;-87
2023/07/02 04:10:45;;;;;;;18.10;7.78;;;14.50;99.90;;;;;;4935515;29;20050;-87
2023/07/02 04:13:10;;;;;;;19.02;7.45;;;14.50;99.90;;;;;;4950012;29;20039;-87
2023/07/02 04:15:36;;;;;;;24.20;8.07;;;14.50;99.90;;;;;;4920029;29;20107;-87
2023/07/02 04:18:02;;;;;;;21.55;7.57;;;14.50;99.90;;;;;;4940074;28;20521;-87
2023/07/02 04:20:28;;;;;;;23.40;8.25;;;14.50;99.90;;;;;;4952635;29;20042;-87
2023/07/02 04:22:54;;;;;;;20.73;8.38;;;14.50;99.90;;;;;;4933438;29;20525;-87
2023/07/02 04:25:20;;;;;;;23.17;8.27;;;14.50;99.90;;;;;;4949260;29;20052;-87
2023/07/02 04:27:46;;;;;;;25.55;9.20;;;14.50;99.90;;;;;;4941441;29;20046;-86
2023/07/02 04:30:13;;;;;;;22.13;8.25;;;14.50;99.90;;;;;;4949410;29;20074;-87
2023/07/02 04:32:39;;;;;;;23.13;8.65;;;14.60;99.90;;;;;;4922999;29;20086;-87
2023/07/02 04:35:09;;;;;;;22.08;8.73;;;14.60;99.90;;;;;;4945485;29;20204;-87
2023/07/02 04:37:35;;;;;;;22.23;8.27;;;14.60;99.90;;;;;;4915760;29;20050;-87
2023/07/02 04:40:02;;;;;;;22.25;8.30;;;14.60;99.90;;;;;;4910664;29;20036;-87
2023/07/02 04:42:27;;;;;;;24.80;8.07;;;14.70;99.90;;;;;;4925421;29;20050;-87
2023/07/02 04:44:54;;;;;;;19.63;8.55;;;14.70;99.90;;;;;;4945267;29;20040;-87
2023/07/02 04:47:20;;;;;;;20.85;8.48;;;14.70;99.90;;;;;;4934986;29;20063;-87
2023/07/02 04:49:48;;;;;;;25.92;9.13;;;14.70;99.90;;;;;;4931327;29;20039;-87
2023/07/02 04:52:14;;;;;;;24.52;8.60;;;14.60;99.90;;;;;;4944892;29;20040;-87
2023/07/02 04:54:40;;;;;;;19.17;8.50;;;14.60;99.90;;;;;;4935040;29;20031;-87
2023/07/02 04:57:08;;;;;;;19.20;7.95;;;14.60;99.90;;;;;;4917447;29;20091;-86
2023/07/02 04:59:37;;;;;;;24.50;7.60;;;14.60;99.90;;;;;;4945902;29;20047;-87
2023/07/02 05:02:02;;;;;;;21.67;8.23;;;14.60;99.90;;;;;;4946434;29;20043;-87
2023/07/02 05:04:28;;;;;;;24.92;7.50;;;14.60;99.90;;;;;;4931980;29;20114;-87
2023/07/02 05:06:54;;;;;;;18.00;7.30;;;14.60;99.90;;;;;;4926804;29;20460;-87
2023/07/02 05:09:20;;;;;;;19.45;7.47;;;14.60;99.90;;;;;;4951790;29;20256;-87
2023/07/02 05:11:45;;;;;;;24.30;7.97;;;14.60;99.90;;;;;;4935520;29;20070;-87
2023/07/02 05:14:26;;;;;;;17.40;7.63;;;14.60;99.90;;;;;;4950100;29;20081;-87
2023/07/02 05:16:52;;;;;;;28.77;7.63;;;14.70;99.90;;;;;;4950239;28;20055;-87
2023/07/02 05:19:18;;;;;;;24.33;7.90;;;14.70;99.90;;;;;;4933306;29;20098;-87
2023/07/02 05:21:44;;;;;;;21.13;7.72;;;14.70;99.90;;;;;;4948541;28;20438;-87
2023/07/02 05:24:09;;;;;;;26.10;7.78;;;14.80;99.90;;;;;;4938145;29;20040;-87
2023/07/02 05:26:35;;;;;;;23.20;6.93;;;14.80;99.90;;;;;;4951688;29;20513;-87
2023/07/02 05:29:01;;;;;;;21.20;7.25;;;14.80;99.90;;;;;;4947198;28;20115;-86
2023/07/02 05:31:27;;;;;;;21.73;7.30;;;14.80;99.90;;;;;;4931324;28;20059;-83
2023/07/02 05:33:54;;;;;;;23.75;6.82;;;14.90;99.90;;;;;;4933932;28;20043;-87
2023/07/02 05:36:22;;;;;;;21.58;7.00;;;14.90;99.90;;;;;;4948765;28;20042;-83
2023/07/02 05:38:48;;;;;;;18.95;6.32;;;14.90;99.90;;;;;;4924900;29;20102;-83
2023/07/02 05:41:21;;;;;;;16.67;5.97;;;14.90;99.90;;;;;;4929209;29;20051;-83
2023/07/02 05:43:49;;;;;;;19.85;6.65;;;15.00;99.90;;;;;;4947856;28;20118;-85
2023/07/02 05:46:15;;;;;;;15.52;5.88;;;15.10;99.90;;;;;;4945290;29;20139;-85
2023/07/02 05:48:41;;;;;;;24.73;6.43;;;15.10;99.90;;;;;;4948893;29;20039;-86
2023/07/02 05:51:10;;;;;;;17.15;6.13;;;15.10;99.90;;;;;;4927544;29;20067;-81
2023/07/02 05:53:37;;;;;;;16.95;6.05;;;15.20;99.90;;;;;;4928454;29;20127;-81
2023/07/02 05:56:03;;;;;;;19.60;6.38;;;15.30;99.90;;;;;;4943508;28;20055;-86
2023/07/02 05:58:29;;;;;;;21.17;6.10;;;15.50;99.90;;;;;;4921804;29;20051;-85
2023/07/02 06:00:55;;;;;;;17.00;5.72;;;15.60;99.90;;;;;;4946564;29;20051;-86
2023/07/02 06:03:21;;;;;;;15.20;5.78;;;15.70;99.90;;;;;;4942826;28;20050;-86
2023/07/02 06:05:57;;;;;;;15.48;5.35;;;15.80;99.90;;;;;;4948452;29;20043;-85
2023/07/02 06:08:23;;;;;;;16.10;6.03;;;15.80;99.90;;;;;;4947935;29;20434;-85
2023/07/02 06:10:49;;;;;;;20.23;5.75;;;15.80;99.90;;;;;;4948842;29;20502;-87
2023/07/02 06:13:15;;;;;;;17.90;6.05;;;15.90;99.90;;;;;;4944137;28;20079;-86
2023/07/02 06:15:40;;;;;;;15.23;5.30;;;15.90;99.90;;;;;;4919472;29;20035;-86
2023/07/02 06:18:06;;;;;;;18.70;6.90;;;15.90;99.90;;;;;;4932896;29;20061;-85
2023/07/02 06:20:32;;;;;;;15.88;5.78;;;15.90;99.90;;;;;;4950130;28;20050;-85
2023/07/02 06:23:01;;;;;;;16.13;5.60;;;15.80;99.90;;;;;;4939703;29;20062;-85
2023/07/02 06:25:27;;;;;;;14.25;5.32;;;15.90;99.90;;;;;;4921312;29;20048;-85
2023/07/02 06:27:55;;;;;;;14.90;5.15;;;15.80;99.90;;;;;;4933028;29;20058;-85
2023/07/02 06:30:22;;;;;;;20.45;6.13;;;15.80;99.90;;;;;;4930711;29;20051;-87
2023/07/02 06:32:48;;;;;;;13.05;5.63;;;15.90;99.90;;;;;;4936163;29;20040;-86
2023/07/02 06:35:13;;;;;;;20.25;5.95;;;15.90;99.90;;;;;;4932799;29;20516;-88
2023/07/02 06:37:39;;;;;;;15.23;5.72;;;15.90;99.90;;;;;;4928304;29;20557;-84
2023/07/02 06:40:06;;;;;;;14.88;5.45;;;15.90;99.90;;;;;;4937704;29;20055;-84
2023/07/02 06:42:32;;;;;;;17.23;4.97;;;16.00;99.90;;;;;;4935140;29;20050;-84
2023/07/02 06:44:59;;;;;;;18.55;5.43;;;16.10;99.90;;;;;;4924673;29;20150;-85
2023/07/02 06:47:24;;;;;;;17.58;5.38;;;16.20;99.90;;;;;;4925410;29;20044;-85
2023/07/02 06:49:52;;;;;;;15.70;5.50;;;16.30;99.90;;;;;;4933340;29;20035;-85
2023/07/02 06:52:18;;;;;;;14.63;4.85;;;16.30;99.90;;;;;;4933659;29;20118;-86
2023/07/02 06:54:44;;;;;;;12.65;4.88;;;16.40;99.90;;;;;;4924064;29;20139;-85
2023/07/02 06:57:10;;;;;;;18.13;5.30;;;16.40;99.90;;;;;;4950238;29;20031;-86
2023/07/02 06:59:35;;;;;;;12.48;4.18;;;16.40;99.90;;;;;;4928998;29;20051;-85
2023/07/02 07:02:02;;;;;;;15.40;5.15;;;16.40;99.90;;;;;;4918407;29;20055;-83
2023/07/02 07:04:28;;;;;;;17.13;4.20;;;16.40;99.90;;;;;;4925155;29;20519;-84
2023/07/02 07:06:55;;;;;;;19.75;5.03;;;16.50;99.90;;;;;;4950444;29;20035;-83
2023/07/02 07:09:21;;;;;;;16.30;5.18;;;16.60;99.90;;;;;;4950456;29;20121;-84
2023/07/02 07:11:47;;;;;;;17.50;4.05;;;16.60;99.90;;;;;;4950987;28;20039;-84
2023/07/02 07:14:13;;;;;;;12.85;4.07;;;16.80;99.90;;;;;;4949560;29;20075;-83
2023/07/02 07:16:39;;;;;;;16.30;4.65;;;17.00;99.90;;;;;;4948417;29;20043;-86
2023/07/02 07:19:05;;;;;;;11.32;3.75;;;17.10;99.90;;;;;;4911306;29;20051;-86
2023/07/02 07:21:31;;;;;;;10.55;3.33;;;17.10;99.90;;;;;;4934529;29;20528;-86
2023/07/02 07:23:57;;;;;;;15.52;4.25;;;17.30;99.90;;;;;;4949933;29;20039;-86
2023/07/02 07:26:22;;;;;;;14.05;4.20;;;17.30;99.90;;;;;;4918600;29;20047;-86
2023/07/02 07:28:48;;;;;;;13.48;4.63;;;17.40;99.90;;;;;;4950187;29;20042;-86
2023/07/02 07:31:15;;;;;;;9.93;3.30;;;17.70;99.90;;;;;;4902896;29;20039;-85
2023/07/02 07:33:40;;;;;;;12.77;3.53;;;18.00;99.90;;;;;;4947494;29;20521;-86
2023/07/02 07:36:06;;;;;;;12.27;3.58;;;18.10;99.90;;;;;;4931773;29;20039;-86
2023/07/02 07:38:32;;;;;;;12.50;3.05;;;18.10;99.90;;;;;;4946783;28;20544;-86
2023/07/02 07:40:58;;;;;;;10.25;3.42;;;18.30;99.90;;;;;;4949897;29;20518;-86
2023/07/02 07:43:26;;;;;;;11.10;3.55;;;18.50;99.90;;;;;;4949419;28;20516;-86
2023/07/02 07:45:51;;;;;;;11.43;2.70;;;18.70;99.90;;;;;;4930657;29;20054;-86
2023/07/02 07:48:18;;;;;;;11.40;3.28;;;18.90;99.90;;;;;;4934411;29;20042;-87
2023/07/02 07:50:49;;;;;;;10.57;2.40;;;18.90;99.90;;;;;;4924836;29;20520;-87
2023/07/02 07:53:15;;;;;;;9.25;2.58;;;18.90;99.90;;;;;;4919085;29;20039;-85
2023/07/02 07:55:40;;;;;;;11.82;3.28;;;18.90;99.90;;;;;;4950270;29;20043;-83
2023/07/02 07:58:06;;;;;;;12.18;3.20;;;18.80;99.90;;;;;;4928135;29;20079;-85
2023/07/02 08:00:32;;;;;;;11.63;3.65;;;18.90;99.90;;;;;;4948487;29;20052;-84
2023/07/02 08:02:59;;;;;;;9.02;2.85;;;18.80;99.90;;;;;;4948555;29;20047;-85
2023/07/02 08:05:25;;;;;;;11.35;3.42;;;18.70;99.90;;;;;;4948925;29;20058;-86
2023/07/02 08:07:51;;;;;;;11.38;3.03;;;18.60;99.90;;;;;;4949860;29;20046;-85
2023/07/02 08:10:16;;;;;;;12.60;2.88;;;18.60;99.90;;;;;;4913367;29;20106;-85
2023/07/02 08:12:42;;;;;;;12.02;2.95;;;18.70;99.90;;;;;;4929155;29;20039;-86
2023/07/02 08:15:08;;;;;;;11.65;2.80;;;18.90;99.90;;;;;;4948920;29;20087;-85
2023/07/02 08:17:34;;;;;;;11.82;3.40;;;19.10;99.90;;;;;;4942909;29;20462;-86
2023/07/02 08:20:00;;;;;;;12.02;3.40;;;19.30;99.90;;;;;;4926500;29;20185;-86
2023/07/02 08:22:25;;;;;;;11.85;2.95;;;19.50;99.90;;;;;;4929043;29;20470;-85
2023/07/02 08:24:51;;;;;;;7.78;2.42;;;19.60;99.90;;;;;;4923763;29;20077;-85
2023/07/02 08:27:19;;;;;;;13.18;3.13;;;19.70;99.90;;;;;;4949238;28;20031;-87
2023/07/02 08:29:48;;;;;;;8.00;2.90;;;19.80;99.50;;;;;;4946577;29;20039;-86
2023/07/02 08:32:15;;;;;;;10.52;3.13;;;19.80;99.90;;;;;;4946727;29;20086;-85
2023/07/02 08:34:41;;;;;;;14.40;3.40;;;19.90;99.90;;;;;;4933998;29;20039;-95
2023/07/02 08:37:07;;;;;;;9.25;2.83;;;20.00;99.90;;;;;;4934179;29;20043;-95
2023/07/02 08:39:35;;;;;;;11.15;3.08;;;19.90;99.80;;;;;;4943215;29;20926;-91
2023/07/02 08:42:01;;;;;;;9.10;3.00;;;19.60;99.90;;;;;;4949895;29;20039;-87
2023/07/02 08:44:27;;;;;;;12.45;3.38;;;19.30;99.90;;;;;;4927912;29;20466;-85
2023/07/02 08:46:56;;;;;;;9.05;3.10;;;19.10;99.90;;;;;;4926038;29;20047;-85
2023/07/02 08:49:21;;;;;;;7.85;3.00;;;18.90;99.90;;;;;;4923758;28;20157;-83
2023/07/02 08:51:47;;;;;;;11.23;3.00;;;18.70;99.90;;;;;;4946622;28;20043;-84
2023/07/02 08:54:14;;;;;;;12.50;3.10;;;18.50;99.90;;;;;;4926324;28;20067;-89
2023/07/02 08:56:40;;;;;;;8.07;3.17;;;18.60;99.90;;;;;;4919645;29;20051;-89
2023/07/02 08:59:09;;;;;;;15.05;3.70;;;18.70;99.90;;;;;;4926595;29;20036;-86
2023/07/02 09:01:49;;;;;;;12.43;3.60;;;18.70;99.90;;;;;;4946856;28;20043;-86
2023/07/02 09:04:16;;;;;;;10.65;2.80;;;18.70;99.90;;;;;;4927197;29;20035;-86
2023/07/02 09:06:42;;;;;;;13.05;3.95;;;18.60;99.90;;;;;;4941532;28;20553;-86
2023/07/02 09:09:07;;;;;;;13.75;3.47;;;18.50;99.90;;;;;;4947162;29;20042;-86
2023/07/02 09:11:34;;;;;;;13.02;3.47;;;18.50;99.90;;;;;;4947245;29;20043;-86
2023/07/02 09:14:00;;;;;;;12.57;3.60;;;18.40;99.90;;;;;;4944092;28;20027;-86
2023/07/02 09:32:13;;;;;;;12.23;3.88;;;18.30;99.90;;;;;;6221505;22;1837904;-82
2023/07/02 09:34:41;;;;;;;9.32;2.80;;;18.30;99.90;;;;;;6277859;22;20454;-88
2023/07/02 09:37:07;;;;;;;12.68;3.05;;;18.40;99.90;;;;;;6275758;22;20069;-83
2023/07/02 09:39:34;;;;;;;10.65;3.53;;;18.50;99.90;;;;;;6274696;22;20728;-84
2023/07/02 09:42:01;;;;;;;17.75;4.03;;;18.60;99.90;;;;;;6276069;22;20011;-87
2023/07/02 09:44:32;;;;;;;12.20;3.50;;;18.70;99.90;;;;;;6252466;22;20026;-81
2023/07/02 09:47:05;;;;;;;17.08;3.72;;;18.70;99.90;;;;;;6276390;22;20061;-82
2023/07/02 09:49:37;;;;;;;15.35;3.50;;;18.70;99.90;;;;;;6276211;22;20012;-81
2023/07/02 09:52:05;;;;;;;14.35;3.83;;;18.70;99.90;;;;;;6251930;22;20057;-81
2023/07/02 09:54:31;;;;;;;16.05;3.40;;;18.70;99.90;;;;;;6277327;22;20019;-79
2023/07/02 09:56:58;;;;;;;14.18;3.45;;;18.70;99.90;;;;;;6278650;22;20086;-79
2023/07/02 09:59:24;;;;;;;12.88;3.90;;;18.70;99.90;;;;;;6279479;22;20415;-78
2023/07/02 10:01:51;;;;;;;11.30;3.22;;;18.80;99.90;;;;;;6277218;22;20462;-79
2023/07/02 10:04:18;;;;;;;16.65;3.45;;;19.00;99.90;;;;;;6278141;22;20054;-79
2023/07/02 10:06:50;;;;;;;14.65;3.40;;;19.30;99.90;;;;;;6277952;22;20076;-79
2023/07/02 10:09:19;;;;;;;11.57;3.28;;;19.40;99.90;;;;;;6273876;22;20016;-79
2023/07/02 10:11:44;;;;;;;9.88;3.45;;;19.40;99.90;;;;;;6276600;22;20019;-79
2023/07/02 10:14:10;;;;;;;10.57;3.38;;;19.40;99.90;;;;;;6276237;22;20030;-77
2023/07/02 10:16:54;;;;;;;11.48;3.03;;;19.30;99.90;;;;;;6277743;22;20082;-78
2023/07/02 10:19:20;;;;;;;10.90;3.15;;;19.30;99.90;;;;;;6252217;22;20026;-77
2023/07/02 10:21:46;;;;;;;13.23;3.10;;;19.20;99.90;;;;;;6279447;22;20070;-78
2023/07/02 10:24:13;;;;;;;9.57;3.15;;;19.30;99.90;;;;;;6278782;22;20023;-77
2023/07/02 10:26:51;;;;;;;11.90;3.42;;;19.40;99.90;;;;;;6274325;22;20019;-79
2023/07/02 10:29:19;;;;;;;21.60;3.40;;;19.50;99.90;;;;;;6269108;22;20020;-80
2023/07/02 10:31:49;;;;;;;9.93;3.35;;;19.50;99.90;;;;;;6244960;22;20022;-79
2023/07/02 10:34:15;;;;;;;14.75;3.17;;;19.40;99.90;;;;;;6270111;22;20081;-80
2023/07/02 10:36:40;;;;;;;12.88;2.67;;;19.30;99.90;;;;;;6244580;22;20016;-80
2023/07/02 10:39:06;;;;;;;9.05;3.15;;;19.20;99.90;;;;;;6243638;22;20043;-79
2023/07/02 10:41:32;;;;;;;13.10;3.28;;;19.20;99.90;;;;;;6272166;22;20041;-78
2023/07/02 10:44:11;;;;;;;11.00;3.42;;;19.30;99.90;;;;;;6272016;22;20362;-80
2023/07/02 10:47:03;;;;;;;14.70;3.38;;;19.40;99.90;;;;;;6270896;22;20094;-79
2023/07/02 10:49:33;;;;;;;10.15;2.80;;;19.50;99.90;;;;;;6266774;22;20442;-79
2023/07/02 10:52:00;;;;;;;17.13;2.97;;;19.50;99.90;;;;;;6244652;22;20019;-79
2023/07/02 10:54:26;;;;;;;9.43;2.75;;;19.60;99.90;;;;;;6271679;22;20484;-79
2023/07/02 10:56:57;;;;;;;6.57;1.92;;;19.60;99.90;;;;;;6244349;22;20019;-79
2023/07/02 10:59:26;;;;;;;8.50;2.72;;;19.80;99.80;;;;;;6269581;22;20022;-79
2023/07/02 11:01:51;;;;;;;11.57;3.00;;;19.90;99.90;;;;;;6270591;22;20064;-79
2023/07/02 11:04:18;;;;;;;10.98;3.13;;;20.00;99.50;;;;;;6272308;22;20015;-79
2023/07/02 11:06:44;;;;;;;12.35;3.33;;;19.90;98.70;;;;;;6270436;22;20163;-79
2023/07/02 11:09:17;;;;;;;11.63;2.60;;;19.80;98.50;;;;;;6272372;22;20026;-79
2023/07/02 11:11:55;;;;;;;11.38;3.38;;;19.60;98.70;;;;;;6272702;22;20011;-78
2023/07/02 11:14:31;;;;;;;13.55;3.33;;;19.60;99.20;;;;;;6271844;22;20020;-80
2023/07/02 11:16:58;;;;;;;13.73;3.45;;;19.60;99.50;;;;;;6270393;22;20023;-79
2023/07/02 11:19:24;;;;;;;15.50;3.05;;;19.70;99.50;;;;;;6270223;22;20334;-79
2023/07/02 11:21:52;;;;;;;11.38;2.88;;;19.70;99.60;;;;;;6269797;22;20047;-79
2023/07/02 11:24:28;;;;;;;9.10;2.40;;;19.70;99.80;;;;;;6271934;22;20008;-80
2023/07/02 11:26:53;;;;;;;9.98;2.70;;;19.70;99.50;;;;;;6269502;22;20011;-79
2023/07/02 11:29:19;;;;;;;13.05;2.70;;;19.70;99.40;;;;;;6271635;22;20016;-79
2023/07/02 11:31:45;;;;;;;11.85;2.97;;;19.70;99.20;;;;;;6269599;22;20020;-79
2023/07/02 11:34:18;;;;;;;10.23;2.83;;;19.80;99.30;;;;;;6269790;22;20028;-79
2023/07/02 11:36:45;;;;;;;13.60;2.60;;;19.90;99.10;;;;;;6270512;22;20331;-80
2023/07/02 11:39:12;;;;;;;10.43;1.98;;;20.00;99.10;;;;;;6268516;22;20042;-78
2023/07/02 11:41:39;;;;;;;6.50;2.15;;;20.10;98.00;;;;;;6269728;22;20043;-78
2023/07/02 11:44:05;;;;;;;5.47;1.35;;;20.10;98.10;;;;;;6269613;22;20549;-79
2023/07/02 11:46:30;;;;;;;9.43;1.45;;;20.10;97.30;;;;;;6270633;22;20024;-79
2023/07/02 11:48:56;;;;;;;10.32;2.05;;;20.10;97.00;;;;;;6267981;22;20419;-78
2023/07/02 11:51:22;;;;;;;12.80;2.03;;;20.30;96.80;;;;;;6272269;22;20431;-79
2023/07/02 11:53:48;;;;;;;11.63;3.08;;;20.50;97.20;;;;;;6270941;22;20427;-80
2023/07/02 11:56:14;;;;;;;10.00;2.72;;;20.60;97.60;;;;;;6266620;22;20417;-80
2023/07/02 11:58:41;;;;;;;9.30;2.20;;;20.50;97.50;;;;;;6270101;22;20015;-80
2023/07/02 12:01:06;;;;;;;9.95;2.53;;;20.40;98.00;;;;;;6268704;22;20015;-80
2023/07/02 12:03:32;;;;;;;10.38;2.45;;;20.10;97.70;;;;;;6268604;22;20308;-80
2023/07/02 12:05:58;;;;;;;8.75;2.35;;;19.90;98.00;;;;;;6269947;22;20372;-80
2023/07/02 12:08:24;;;;;;;8.95;2.45;;;19.70;98.40;;;;;;6270620;22;20023;-80
2023/07/02 12:10:49;;;;;;;10.45;2.38;;;19.60;98.40;;;;;;6271375;22;20012;-81
2023/07/02 12:13:15;;;;;;;11.93;2.60;;;19.60;98.80;;;;;;6243605;22;20035;-80
2023/07/02 12:15:42;;;;;;;14.77;2.20;;;19.60;98.60;;;;;;6268639;22;20094;-81
2023/07/02 12:18:09;;;;;;;7.30;2.28;;;19.50;98.80;;;;;;6268584;22;20022;-80
2023/07/02 12:20:35;;;;;;;11.68;2.35;;;19.50;98.40;;;;;;6269523;22;20438;-80
2023/07/02 12:23:00;;;;;;;9.48;2.40;;;19.50;98.20;;;;;;6268844;22;20069;-79
2023/07/02 12:25:27;;;;;;;10.82;2.20;;;19.50;98.60;;;;;;6270910;22;20019;-79
2023/07/02 12:27:53;;;;;;;8.23;2.38;;;19.50;98.70;;;;;;6243373;22;20046;-79
2023/07/02 12:30:19;;;;;;;13.43;2.47;;;19.50;98.80;;;;;;6271606;22;20011;-79
2023/07/02 12:32:45;;;;;;;11.18;2.53;;;19.50;99.10;;;;;;6268680;22;20019;-80
2023/07/02 12:35:11;;;;;;;10.18;2.42;;;19.60;99.20;;;;;;6268962;22;20023;-79
2023/07/02 12:37:45;;;;;;;8.30;2.08;;;19.60;99.10;;;;;;6271480;22;20007;-79
2023/07/02 12:40:11;;;;;;;7.38;2.00;;;19.60;97.60;;;;;;6268701;22;20012;-80
2023/07/02 12:42:37;;;;;;;9.20;1.98;;;19.70;97.20;;;;;;6271290;22;20094;-80
2023/07/02 12:45:03;;;;;;;7.93;1.88;;;19.80;97.60;;;;;;6269778;22;20043;-80
2023/07/02 12:47:29;;;;;;;6.32;1.65;;;20.10;97.40;;;;;;6244052;22;20019;-80
2023/07/02 12:49:55;;;;;;;8.68;2.38;;;20.40;97.50;;;;;;6270519;22;20014;-80
2023/07/02 12:52:20;;;;;;;10.45;2.20;;;20.60;95.70;;;;;;6271438;22;20024;-79
2023/07/02 12:54:46;;;;;;;9.25;2.28;;;20.50;95.60;;;;;;6242346;22;20016;-81